Humboldt, South Dakota
Current Conditions -  °F | °C
As of 6:56 PM on Friday 28 Nov 2014 (Local Time) from KFSD Reporting Station
Few Clouds Few Clouds  
Wind Chill: 17°   Ceiling: Unl
Heat Index: 25°   Visibility: 9mi
Dew Point: 23°   Wind: 7mph
Humidity: 92%   Direction: 70°ENE
Pressure: 29.67"   Gusts: NA
Location:  43.65°N, 97.07°W
Report Text: KFSD 290056Z 07006KT 9SM FEW250 M04/M05 A2967 RMK AO2 SLP068 T10391050
Loading
Personal Weather Stations






























Interactive Weather Map New forecast layout! Learn more

10-Day Weather Forecast

Advertisements
Track Severe Weather on mobile